createdAt,value
2017-11-10T00:00:55.537Z,90.50
2017-11-10T00:04:00.249Z,90.60
2017-11-10T00:07:05.828Z,90.70
2017-11-10T00:10:10.852Z,90.50
2017-11-10T00:13:15.696Z,90.40
2017-11-10T00:16:21.469Z,90.60
2017-11-10T00:19:26.967Z,90.90
2017-11-10T00:22:32.332Z,90.90
2017-11-10T00:25:37.264Z,91.00
2017-11-10T00:28:42.396Z,91.20
2017-11-10T00:31:47.460Z,91.00
2017-11-10T00:34:52.557Z,91.20
2017-11-10T00:37:58.569Z,91.20
2017-11-10T00:41:03.533Z,91.20
2017-11-10T00:44:08.567Z,91.70
2017-11-10T00:47:13.961Z,91.40
2017-11-10T00:50:18.979Z,91.60
2017-11-10T00:53:23.978Z,91.80
2017-11-10T00:56:29.872Z,92.10
2017-11-10T00:59:34.857Z,92.00
2017-11-10T01:02:40.781Z,91.70
2017-11-10T01:05:46.723Z,91.60
2017-11-10T01:08:52.834Z,91.70
2017-11-10T01:11:59.617Z,91.70
2017-11-10T01:15:04.893Z,92.00
2017-11-10T01:18:10.002Z,92.10
2017-11-10T01:21:15.229Z,92.20
2017-11-10T01:24:20.653Z,92.30
2017-11-10T01:27:25.917Z,92.30
2017-11-10T01:30:31.537Z,92.30
2017-11-10T01:33:37.666Z,92.30
2017-11-10T01:36:42.933Z,92.20
2017-11-10T01:39:48.582Z,92.20
2017-11-10T01:42:54.677Z,92.10
2017-11-10T01:45:59.722Z,92.10
2017-11-10T01:49:04.663Z,92.20
2017-11-10T01:52:09.824Z,92.10
2017-11-10T01:55:15.447Z,91.90
2017-11-10T01:58:21.010Z,92.00
2017-11-10T02:01:25.866Z,91.90
2017-11-10T02:04:31.892Z,91.30
2017-11-10T02:07:36.777Z,91.30
2017-11-10T02:10:41.790Z,91.20
2017-11-10T02:13:47.450Z,90.80
2017-11-10T02:16:52.373Z,90.80
2017-11-10T02:19:57.697Z,90.50
2017-11-10T02:23:03.041Z,90.60
2017-11-10T02:26:08.794Z,90.40
2017-11-10T02:29:13.915Z,90.40
2017-11-10T02:32:19.084Z,90.20
2017-11-10T02:35:24.681Z,90.20
2017-11-10T02:38:29.625Z,89.90
2017-11-10T02:41:35.134Z,89.30
2017-11-10T02:44:40.228Z,89.10
2017-11-10T02:47:46.501Z,88.20
2017-11-10T02:50:52.802Z,88.40
2017-11-10T02:53:57.965Z,88.40
2017-11-10T02:57:03.221Z,87.20
2017-11-10T03:00:08.741Z,88.60
2017-11-10T03:03:14.197Z,88.50
2017-11-10T03:06:20.390Z,87.30
2017-11-10T03:09:26.177Z,87.70
2017-11-10T03:12:31.150Z,87.30
2017-11-10T03:15:37.633Z,88.10
2017-11-10T03:18:42.504Z,88.10
2017-11-10T03:21:47.452Z,87.40
2017-11-10T03:24:53.565Z,86.80
2017-11-10T03:27:59.286Z,86.70
2017-11-10T03:31:04.323Z,87.90
2017-11-10T03:34:09.317Z,86.70
2017-11-10T03:37:15.769Z,86.60
2017-11-10T03:40:21.222Z,86.60
2017-11-10T03:43:26.085Z,86.20
2017-11-10T03:46:31.503Z,86.20
2017-11-10T03:49:38.333Z,86.10
2017-11-10T03:52:43.660Z,87.10
2017-11-10T03:55:48.725Z,85.30
2017-11-10T03:58:54.674Z,86.10
2017-11-10T04:02:00.081Z,86.10
2017-11-10T04:05:05.336Z,86.30
2017-11-10T04:08:10.853Z,87.00
2017-11-10T04:11:16.501Z,87.00
2017-11-10T04:14:21.616Z,86.70
2017-11-10T04:17:26.695Z,86.20
2017-11-10T04:20:31.659Z,85.40
2017-11-10T04:23:37.224Z,85.80
2017-11-10T04:26:42.225Z,85.80
2017-11-10T04:29:47.599Z,86.50
2017-11-10T04:32:54.029Z,87.10
2017-11-10T04:35:59.657Z,87.50
2017-11-10T04:39:04.933Z,87.50
2017-11-10T04:42:13.976Z,88.00
2017-11-10T04:45:20.468Z,88.40
2017-11-10T04:48:25.244Z,88.40
2017-11-10T04:51:31.662Z,88.60
2017-11-10T04:54:36.571Z,88.50
2017-11-10T04:57:41.833Z,88.30
2017-11-10T05:00:46.853Z,88.60
2017-11-10T05:03:51.695Z,88.30
2017-11-10T05:06:57.225Z,88.30
2017-11-10T05:10:02.887Z,88.20
2017-11-10T05:13:08.232Z,88.50
2017-11-10T05:16:13.293Z,88.50
2017-11-10T05:19:18.352Z,87.80
2017-11-10T05:22:23.281Z,87.70
2017-11-10T05:25:28.435Z,87.20
2017-11-10T05:28:33.310Z,86.70
2017-11-10T05:31:38.713Z,86.60
2017-11-10T05:34:44.073Z,86.40
2017-11-10T05:37:49.045Z,85.90
2017-11-10T05:40:55.152Z,86.20
2017-11-10T05:44:00.973Z,85.70
2017-11-10T05:47:06.667Z,85.70
2017-11-10T05:50:12.097Z,87.00
2017-11-10T05:53:17.770Z,85.90
2017-11-10T05:56:23.172Z,85.90
2017-11-10T05:59:28.612Z,86.10
2017-11-10T06:02:34.100Z,85.50
2017-11-10T06:05:39.067Z,84.60
2017-11-10T06:08:43.861Z,83.80
2017-11-10T06:11:51.717Z,83.90
2017-11-10T06:15:02.290Z,83.70
2017-11-10T06:18:14.805Z,83.30
2017-11-10T06:21:22.601Z,83.30
2017-11-10T06:24:28.385Z,82.90
2017-11-10T06:27:33.875Z,83.00
2017-11-10T06:30:39.012Z,82.80
2017-11-10T06:33:45.901Z,82.40
2017-11-10T06:36:53.260Z,82.70
2017-11-10T06:39:58.257Z,82.90
2017-11-10T06:43:04.436Z,82.60
2017-11-10T06:46:09.298Z,82.60
2017-11-10T06:49:14.973Z,82.80
2017-11-10T06:52:20.449Z,82.70
2017-11-10T06:55:25.948Z,82.80
2017-11-10T06:58:31.049Z,82.70
2017-11-10T07:01:36.745Z,82.80
2017-11-10T07:04:42.510Z,82.70
2017-11-10T07:07:48.873Z,82.70
2017-11-10T07:10:53.949Z,82.50
2017-11-10T07:13:59.488Z,82.50
2017-11-10T07:17:05.767Z,82.50
2017-11-10T07:20:10.730Z,82.40
2017-11-10T07:23:15.996Z,82.50
2017-11-10T07:26:22.474Z,83.20
2017-11-10T07:29:27.326Z,82.80
2017-11-10T07:32:32.702Z,82.60
2017-11-10T07:35:38.059Z,82.50
2017-11-10T07:38:43.829Z,83.00
2017-11-10T07:41:49.651Z,84.50
2017-11-10T07:44:57.189Z,83.70
2017-11-10T07:48:03.210Z,82.70
2017-11-10T07:51:08.968Z,83.10
2017-11-10T07:54:14.989Z,83.10
2017-11-10T07:57:20.707Z,83.50
2017-11-10T08:00:25.928Z,83.60
2017-11-10T08:03:31.189Z,83.30
2017-11-10T08:06:37.409Z,83.70
2017-11-10T08:09:42.404Z,83.60
2017-11-10T08:12:47.217Z,82.90
2017-11-10T08:15:52.957Z,83.30
2017-11-10T08:18:59.069Z,84.10
2017-11-10T08:22:05.077Z,83.40
2017-11-10T08:25:10.457Z,83.30
2017-11-10T08:28:18.290Z,83.50
2017-11-10T08:31:23.820Z,83.30
2017-11-10T08:34:29.869Z,83.20
2017-11-10T08:37:34.713Z,83.20
2017-11-10T08:40:40.497Z,81.90
2017-11-10T08:43:45.627Z,81.90
2017-11-10T08:46:50.685Z,82.60
2017-11-10T08:49:56.342Z,82.80
2017-11-10T08:53:02.024Z,82.50
2017-11-10T08:56:07.650Z,82.50
2017-11-10T08:59:13.037Z,82.50
2017-11-10T09:02:18.689Z,82.50
2017-11-10T09:05:24.161Z,82.70
2017-11-10T09:08:29.864Z,82.50
2017-11-10T09:11:35.440Z,82.00
2017-11-10T09:14:40.237Z,81.70
2017-11-10T09:17:45.142Z,82.20
2017-11-10T09:20:51.134Z,82.40
2017-11-10T09:23:57.166Z,82.40
2017-11-10T09:27:02.095Z,82.40
2017-11-10T09:30:13.125Z,82.20
2017-11-10T09:33:18.957Z,82.20
2017-11-10T09:40:10.761Z,85.20
2017-11-10T09:47:10.881Z,86.20
2017-11-10T09:50:22.050Z,86.20
2017-11-10T09:53:33.904Z,87.80
2017-11-10T09:56:45.092Z,88.50
2017-11-10T09:59:57.619Z,88.60
2017-11-10T10:03:07.153Z,88.70
2017-11-10T10:06:18.548Z,89.10
2017-11-10T10:09:27.065Z,89.50
2017-11-10T10:12:39.221Z,89.90
2017-11-10T10:15:51.014Z,89.00
2017-11-10T10:18:57.790Z,89.50
2017-11-10T10:22:13.089Z,88.80
2017-11-10T10:25:18.498Z,88.30
2017-11-10T10:28:23.613Z,88.30
2017-11-10T10:31:29.263Z,88.00
2017-11-10T10:34:34.725Z,88.70
2017-11-10T10:37:41.305Z,88.60
2017-11-10T10:40:46.470Z,88.60
2017-11-10T10:43:51.703Z,89.20
2017-11-10T10:46:57.070Z,89.10
2017-11-10T10:50:01.868Z,88.30
2017-11-10T10:53:07.025Z,87.20
2017-11-10T10:56:12.625Z,86.70
2017-11-10T10:59:18.461Z,86.70
2017-11-10T11:02:23.569Z,87.50
2017-11-10T11:05:29.425Z,87.20
2017-11-10T11:08:34.825Z,87.20
2017-11-10T11:11:39.783Z,87.00
2017-11-10T11:14:45.339Z,87.80
2017-11-10T11:17:50.235Z,87.80
2017-11-10T11:20:54.943Z,88.00
2017-11-10T11:24:00.117Z,88.30
2017-11-10T11:27:05.797Z,88.60
2017-11-10T11:30:11.129Z,90.00
2017-11-10T11:33:16.285Z,89.10
2017-11-10T11:36:27.217Z,89.50
2017-11-10T11:39:32.682Z,89.30
2017-11-10T11:42:38.527Z,90.00
2017-11-10T11:45:46.644Z,89.90
2017-11-10T11:48:55.665Z,90.40
2017-11-10T11:52:01.357Z,90.30
2017-11-10T11:55:07.637Z,90.60
2017-11-10T11:58:13.453Z,90.50
2017-11-10T12:01:18.681Z,90.20
2017-11-10T12:04:25.295Z,90.30
2017-11-10T12:07:31.845Z,90.40
2017-11-10T12:10:37.246Z,90.40
2017-11-10T12:13:42.567Z,90.30
2017-11-10T12:16:48.325Z,90.30
2017-11-10T12:19:53.974Z,90.40
2017-11-10T12:22:59.145Z,90.20
2017-11-10T12:26:03.930Z,90.60
2017-11-10T12:29:08.757Z,90.60
2017-11-10T12:32:14.753Z,90.40
2017-11-10T12:35:20.785Z,90.40
2017-11-10T12:38:25.332Z,90.70
2017-11-10T12:41:31.214Z,91.00
2017-11-10T12:44:37.430Z,90.90
2017-11-10T12:47:43.636Z,90.90
2017-11-10T12:50:49.285Z,91.30
2017-11-10T12:53:55.168Z,91.30
2017-11-10T12:57:02.349Z,91.60
2017-11-10T13:00:07.624Z,91.60
2017-11-10T13:03:13.339Z,91.60
2017-11-10T13:06:19.654Z,91.20
2017-11-10T13:09:24.695Z,91.40
2017-11-10T13:12:29.828Z,91.50
2017-11-10T13:15:34.969Z,91.70
2017-11-10T13:18:40.589Z,91.50
2017-11-10T13:21:46.337Z,91.50
2017-11-10T13:24:52.182Z,91.70
2017-11-10T13:27:57.163Z,91.80
2017-11-10T13:31:04.668Z,91.80
2017-11-10T13:34:10.737Z,92.00
2017-11-10T13:37:15.921Z,92.00
2017-11-10T13:40:20.697Z,92.20
2017-11-10T13:43:27.244Z,92.00
2017-11-10T13:46:32.649Z,92.00
2017-11-10T13:49:38.174Z,92.00
2017-11-10T13:52:43.625Z,91.90
2017-11-10T13:55:49.092Z,92.10
2017-11-10T13:58:54.883Z,92.10
2017-11-10T14:02:00.638Z,91.90
2017-11-10T14:05:05.661Z,92.00
2017-11-10T14:08:11.786Z,91.90
2017-11-10T14:11:17.493Z,91.90
2017-11-10T14:14:23.142Z,92.00
2017-11-10T14:17:28.178Z,92.20
2017-11-10T14:20:33.947Z,92.10
2017-11-10T14:23:39.372Z,92.10
2017-11-10T14:26:44.243Z,92.30
2017-11-10T14:29:49.313Z,92.30
2017-11-10T14:32:57.068Z,92.60
2017-11-10T14:36:02.734Z,92.50
2017-11-10T14:39:07.560Z,92.60
2017-11-10T14:42:13.341Z,92.70
2017-11-10T14:45:18.676Z,92.70
2017-11-10T14:48:24.666Z,93.00
2017-11-10T14:51:30.262Z,92.90
2017-11-10T14:54:35.713Z,93.00
2017-11-10T14:57:41.342Z,93.10
2017-11-10T15:00:46.776Z,93.30
2017-11-10T15:03:52.093Z,93.10
2017-11-10T15:06:57.097Z,93.00
2017-11-10T15:10:03.279Z,93.00
2017-11-10T15:13:08.832Z,93.00
2017-11-10T15:16:14.804Z,93.10
2017-11-10T15:19:20.302Z,93.10
2017-11-10T15:22:25.260Z,93.00
2017-11-10T15:25:30.568Z,93.30
2017-11-10T15:28:35.250Z,93.20
2017-11-10T15:31:40.620Z,93.30
2017-11-10T15:34:46.157Z,93.40
2017-11-10T15:37:51.449Z,93.40
2017-11-10T15:40:57.733Z,93.40
2017-11-10T15:44:03.012Z,93.40
2017-11-10T15:47:08.163Z,93.50
2017-11-10T15:50:13.408Z,93.60
2017-11-10T15:53:18.413Z,93.50
2017-11-10T15:56:24.033Z,93.40
2017-11-10T15:59:28.906Z,93.60
2017-11-10T16:02:35.854Z,93.50
2017-11-10T16:05:41.580Z,93.50
2017-11-10T16:08:47.188Z,93.50
2017-11-10T16:11:53.152Z,93.40
2017-11-10T16:14:58.065Z,93.40
2017-11-10T16:18:03.087Z,93.40
2017-11-10T16:21:08.730Z,93.60
2017-11-10T16:24:13.845Z,93.60
2017-11-10T16:27:19.461Z,93.60
2017-11-10T16:30:24.958Z,93.60
2017-11-10T16:33:31.332Z,93.80
2017-11-10T16:36:36.892Z,93.80
2017-11-10T16:39:42.029Z,93.80
2017-11-10T16:42:47.284Z,93.70
2017-11-10T16:45:52.637Z,93.90
2017-11-10T16:48:58.500Z,93.70
2017-11-10T16:52:03.505Z,93.80
2017-11-10T16:55:08.857Z,93.90
2017-11-10T16:58:14.220Z,93.80
2017-11-10T17:01:20.364Z,94.10
2017-11-10T17:04:26.065Z,93.90
2017-11-10T17:07:31.769Z,93.80
2017-11-10T17:10:37.669Z,94.00
2017-11-10T17:13:42.936Z,94.10
2017-11-10T17:16:50.037Z,93.90
2017-11-10T17:19:55.649Z,93.90
2017-11-10T17:23:00.569Z,93.90
2017-11-10T17:26:07.336Z,93.80
2017-11-10T17:29:13.029Z,93.90
2017-11-10T17:32:17.969Z,93.90
2017-11-10T17:35:23.597Z,93.70
2017-11-10T17:38:28.753Z,93.70
2017-11-10T17:41:34.562Z,93.80
2017-11-10T17:44:39.748Z,93.80
2017-11-10T17:47:45.521Z,93.90
2017-11-10T17:50:50.779Z,93.70
2017-11-10T17:53:56.438Z,93.70
2017-11-10T17:57:02.141Z,93.70
2017-11-10T18:00:07.811Z,93.60
2017-11-10T18:03:12.585Z,93.60
2017-11-10T18:06:18.296Z,93.70
2017-11-10T18:09:23.145Z,93.60
2017-11-10T18:12:28.562Z,93.50
2017-11-10T18:15:33.414Z,93.60
2017-11-10T18:18:38.856Z,93.40
2017-11-10T18:21:44.582Z,93.40
2017-11-10T18:24:49.585Z,93.40
2017-11-10T18:27:54.497Z,93.40
2017-11-10T18:30:59.742Z,93.40
2017-11-10T18:34:05.006Z,93.30
2017-11-10T18:37:11.648Z,93.40
2017-11-10T18:40:16.743Z,93.50
2017-11-10T18:43:23.126Z,93.80
2017-11-10T18:46:28.659Z,93.70
2017-11-10T18:49:35.299Z,93.80
2017-11-10T18:52:39.917Z,93.90
2017-11-10T18:55:47.032Z,94.00
2017-11-10T18:58:55.853Z,94.10
2017-11-10T19:02:01.373Z,94.20
2017-11-10T19:05:07.320Z,94.20
2017-11-10T19:08:12.269Z,94.40
2017-11-10T19:11:17.779Z,94.20
2017-11-10T19:14:23.388Z,94.10
2017-11-10T19:17:28.364Z,94.10
2017-11-10T19:20:34.592Z,94.20
2017-11-10T19:23:45.990Z,94.20
2017-11-10T19:26:52.139Z,94.20
2017-11-10T19:29:58.431Z,94.20
2017-11-10T19:33:03.861Z,94.10
2017-11-10T19:36:09.424Z,94.20
2017-11-10T19:39:14.957Z,94.30
2017-11-10T19:42:20.482Z,94.30
2017-11-10T19:45:25.989Z,94.30
2017-11-10T19:48:31.451Z,94.30
2017-11-10T19:51:37.306Z,94.20
2017-11-10T19:54:43.073Z,94.10
2017-11-10T19:57:48.564Z,94.00
2017-11-10T20:00:54.261Z,94.20
2017-11-10T20:04:01.369Z,94.20
2017-11-10T20:07:07.271Z,94.20
2017-11-10T20:10:12.498Z,94.20
2017-11-10T20:13:17.813Z,94.20
2017-11-10T20:16:24.345Z,94.20
2017-11-10T20:19:30.836Z,94.10
2017-11-10T20:22:36.969Z,94.10
2017-11-10T20:25:42.608Z,94.20
2017-11-10T20:28:47.693Z,94.30
2017-11-10T20:31:52.965Z,94.30
2017-11-10T20:34:57.824Z,94.40
2017-11-10T20:38:03.169Z,94.40
2017-11-10T20:41:09.568Z,94.50
2017-11-10T20:44:15.324Z,94.50
2017-11-10T20:47:22.177Z,94.50
2017-11-10T20:50:28.032Z,94.40
2017-11-10T20:53:34.253Z,94.40
2017-11-10T20:56:39.557Z,94.30
2017-11-10T20:59:45.892Z,94.30
2017-11-10T21:02:50.875Z,94.30
2017-11-10T21:05:56.617Z,94.40
2017-11-10T21:09:01.743Z,94.60
2017-11-10T21:12:06.925Z,94.70
2017-11-10T21:15:13.236Z,94.60
2017-11-10T21:18:18.481Z,94.50
2017-11-10T21:21:24.378Z,94.60
2017-11-10T21:24:29.941Z,94.50
2017-11-10T21:27:35.691Z,94.60
2017-11-10T21:30:40.896Z,94.60
2017-11-10T21:33:45.916Z,94.50
2017-11-10T21:36:51.813Z,94.60
2017-11-10T21:39:58.133Z,94.70
2017-11-10T21:43:05.393Z,94.70
2017-11-10T21:46:10.580Z,94.50
2017-11-10T21:49:16.730Z,94.50
2017-11-10T21:52:21.961Z,94.50
2017-11-10T21:55:27.421Z,94.60
2017-11-10T21:58:32.388Z,94.70
2017-11-10T22:01:37.649Z,94.70
2017-11-10T22:04:43.553Z,95.00
2017-11-10T22:07:49.004Z,95.00
2017-11-10T22:10:54.450Z,95.10
2017-11-10T22:13:59.444Z,95.10
2017-11-10T22:17:05.066Z,94.90
2017-11-10T22:20:10.313Z,94.80
2017-11-10T22:23:16.210Z,95.10
2017-11-10T22:26:22.212Z,95.20
2017-11-10T22:29:27.586Z,95.20
2017-11-10T22:32:33.256Z,95.20
2017-11-10T22:35:38.152Z,95.20
2017-11-10T22:38:44.563Z,95.20
2017-11-10T22:41:50.825Z,95.20
2017-11-10T22:44:56.547Z,95.20
2017-11-10T22:48:01.598Z,95.20
2017-11-10T22:51:08.129Z,95.40
2017-11-10T22:54:14.482Z,95.40
2017-11-10T22:57:20.165Z,95.40
2017-11-10T23:00:25.470Z,95.50
2017-11-10T23:03:30.494Z,95.40
2017-11-10T23:06:36.085Z,95.50
2017-11-10T23:09:41.532Z,95.30
2017-11-10T23:12:47.332Z,95.30
2017-11-10T23:15:52.656Z,95.30
2017-11-10T23:18:58.546Z,95.40
2017-11-10T23:22:03.792Z,95.40
2017-11-10T23:25:09.469Z,95.30
2017-11-10T23:28:14.469Z,95.10
2017-11-10T23:31:19.624Z,94.90
2017-11-10T23:34:24.525Z,94.70
2017-11-10T23:37:29.860Z,94.60
2017-11-10T23:40:34.643Z,94.70
2017-11-10T23:43:39.696Z,94.70
2017-11-10T23:46:44.969Z,94.80
2017-11-10T23:49:50.005Z,94.70
2017-11-10T23:52:55.021Z,94.70
2017-11-10T23:55:59.992Z,94.70
2017-11-10T23:59:05.458Z,94.80
